Time;durP1;ratioP1;P1;durP2;ratioP2;P2;SDS_P1;SDS_P2;PMS_P1;PMS_P2;Temp;Humidity;BMP_temperature;BMP_pressure;BME280_temperature;BME280_humidity;BME280_pressure;Samples;Min_cycle;Max_cycle;Signal;HPM_P1;HPM_P2
2021/11/08 00:01:35;;;;;;;20.85;3.22;;;8.30;99.90;;;;;;5034440;28;20363;-75
2021/11/08 00:04:02;;;;;;;15.98;3.05;;;8.40;99.90;;;;;;5030018;28;20033;-76
2021/11/08 00:06:27;;;;;;;19.23;3.10;;;8.50;99.90;;;;;;5032068;28;20026;-76
2021/11/08 00:08:53;;;;;;;17.15;2.80;;;8.60;99.90;;;;;;5036012;28;20076;-76
2021/11/08 00:11:19;;;;;;;15.73;3.30;;;8.60;99.90;;;;;;5035564;28;20461;-76
2021/11/08 00:13:45;;;;;;;12.23;2.03;;;8.60;99.90;;;;;;5035763;28;20033;-76
2021/11/08 00:19:11;;;;;;;14.38;2.28;;;8.40;99.90;;;;;;5035636;28;20027;-75
2021/11/08 00:21:43;;;;;;;15.75;2.20;;;8.30;99.90;;;;;;5022348;28;20044;-75
2021/11/08 00:24:10;;;;;;;23.35;5.43;;;8.20;99.90;;;;;;5035071;28;20397;-75
2021/11/08 00:26:36;;;;;;;20.00;3.25;;;8.20;99.90;;;;;;5035405;28;20025;-75
2021/11/08 00:29:02;;;;;;;22.30;2.45;;;8.10;99.90;;;;;;5035527;28;20136;-75
2021/11/08 00:31:28;;;;;;;11.73;2.83;;;8.30;99.90;;;;;;5034695;28;20030;-75
2021/11/08 00:33:53;;;;;;;14.10;2.20;;;8.30;99.90;;;;;;5035844;28;20017;-75
2021/11/08 00:36:19;;;;;;;17.70;2.17;;;8.30;99.90;;;;;;5035682;28;20049;-76
2021/11/08 00:38:44;;;;;;;13.38;2.50;;;8.20;99.90;;;;;;5034695;28;20112;-76
2021/11/08 00:41:10;;;;;;;13.57;2.25;;;8.20;99.90;;;;;;5035508;28;20489;-75
2021/11/08 00:43:35;;;;;;;15.00;3.47;;;8.10;99.90;;;;;;5034755;28;20439;-76
2021/11/08 00:46:02;;;;;;;17.10;2.95;;;8.00;99.90;;;;;;5034752;28;20028;-76
2021/11/08 00:48:32;;;;;;;17.98;2.42;;;7.80;99.90;;;;;;5034774;28;20034;-75
2021/11/08 00:50:57;;;;;;;9.30;2.10;;;7.60;99.90;;;;;;5035525;28;20152;-76
2021/11/08 00:53:23;;;;;;;14.70;2.60;;;7.60;99.90;;;;;;5035037;28;20116;-76
2021/11/08 00:55:51;;;;;;;18.05;2.17;;;7.60;99.90;;;;;;5035770;28;20022;-76
2021/11/08 00:58:28;;;;;;;18.77;3.92;;;7.50;99.90;;;;;;5034808;28;20029;-75
2021/11/08 01:00:53;;;;;;;18.98;3.50;;;7.50;99.90;;;;;;5034487;28;20535;-76
2021/11/08 01:03:22;;;;;;;8.10;2.05;;;7.50;99.90;;;;;;5035598;28;20045;-75
2021/11/08 01:05:48;;;;;;;10.65;1.92;;;7.50;99.90;;;;;;5035945;28;20021;-76
2021/11/08 01:08:14;;;;;;;15.32;2.85;;;7.40;99.90;;;;;;5032955;28;20485;-74
2021/11/08 01:10:40;;;;;;;14.63;2.60;;;7.40;99.90;;;;;;5034085;28;20045;-75
2021/11/08 01:13:05;;;;;;;17.42;2.45;;;7.40;99.90;;;;;;5033025;28;20026;-75
2021/11/08 01:15:31;;;;;;;15.30;2.17;;;7.30;99.90;;;;;;5034616;28;20017;-76
2021/11/08 01:17:57;;;;;;;10.50;2.40;;;7.20;99.90;;;;;;5035109;28;20025;-75
2021/11/08 01:20:26;;;;;;;15.98;3.15;;;7.20;99.90;;;;;;5033908;28;20021;-75
2021/11/08 01:22:52;;;;;;;10.00;1.93;;;7.20;99.90;;;;;;5034742;28;20490;-76
2021/11/08 01:25:18;;;;;;;10.00;1.90;;;7.20;99.90;;;;;;5034873;28;20433;-76
2021/11/08 01:27:44;;;;;;;9.65;2.95;;;7.10;99.90;;;;;;5033999;28;20064;-76
2021/11/08 01:30:18;;;;;;;15.10;4.05;;;7.20;99.90;;;;;;5034881;28;20532;-76
2021/11/08 01:32:54;;;;;;;15.13;2.55;;;7.10;99.90;;;;;;5034991;28;20397;-76
2021/11/08 01:35:26;;;;;;;11.70;2.85;;;7.10;99.90;;;;;;5034342;28;20025;-76
2021/11/08 01:38:02;;;;;;;14.35;2.55;;;7.10;99.90;;;;;;5034857;28;20060;-75
2021/11/08 01:40:28;;;;;;;18.95;2.92;;;7.10;99.90;;;;;;5034087;28;20029;-75
2021/11/08 01:42:54;;;;;;;11.82;2.22;;;7.20;99.90;;;;;;5033180;28;20033;-76
2021/11/08 01:45:20;;;;;;;17.63;2.60;;;7.10;99.90;;;;;;5034189;28;20031;-76
2021/11/08 01:47:46;;;;;;;7.75;1.75;;;7.00;99.90;;;;;;5034234;28;20025;-75
2021/11/08 01:50:11;;;;;;;9.50;2.33;;;7.00;99.90;;;;;;5033642;28;20503;-76
2021/11/08 01:52:37;;;;;;;8.05;2.47;;;6.90;99.90;;;;;;5034209;28;20021;-76
2021/11/08 01:55:04;;;;;;;8.38;1.98;;;6.90;99.90;;;;;;5034156;28;20115;-76
2021/11/08 01:57:30;;;;;;;10.52;2.05;;;6.80;99.90;;;;;;5033506;28;20038;-78
2021/11/08 01:59:56;;;;;;;18.38;2.80;;;6.70;99.90;;;;;;5034580;28;20072;-76
2021/11/08 02:02:23;;;;;;;13.73;2.15;;;6.70;99.90;;;;;;5033948;28;20021;-76
2021/11/08 02:04:49;;;;;;;9.40;1.88;;;6.70;99.90;;;;;;5035041;28;20037;-76
2021/11/08 02:07:14;;;;;;;9.63;1.92;;;6.70;99.90;;;;;;5034559;28;20029;-76
2021/11/08 02:09:40;;;;;;;9.20;2.20;;;6.60;99.90;;;;;;5033938;28;20060;-76
2021/11/08 02:12:09;;;;;;;16.17;2.08;;;6.60;99.90;;;;;;5033986;28;20025;-76
2021/11/08 02:14:38;;;;;;;7.38;1.83;;;6.60;99.90;;;;;;5033482;28;20065;-75
2021/11/08 02:17:03;;;;;;;10.20;1.65;;;6.50;99.90;;;;;;5032815;28;20041;-76
2021/11/08 02:19:29;;;;;;;11.30;2.20;;;6.60;99.90;;;;;;5033388;28;20115;-75
2021/11/08 02:21:56;;;;;;;16.15;2.80;;;6.60;99.90;;;;;;5033623;28;20034;-75
2021/11/08 02:24:25;;;;;;;7.30;2.42;;;6.60;99.90;;;;;;5033054;28;20040;-75
2021/11/08 02:26:51;;;;;;;17.85;2.40;;;6.60;99.90;;;;;;5033329;28;20653;-75
2021/11/08 02:29:16;;;;;;;14.35;3.72;;;6.60;99.90;;;;;;5033718;28;20211;-76
2021/11/08 02:31:43;;;;;;;9.80;2.47;;;6.70;99.90;;;;;;5033050;28;20037;-75
2021/11/08 02:34:09;;;;;;;13.85;2.55;;;6.70;99.90;;;;;;5033239;28;20033;-74
2021/11/08 02:36:41;;;;;;;9.65;1.75;;;6.70;99.90;;;;;;5033716;28;20042;-76
2021/11/08 02:39:07;;;;;;;15.60;2.05;;;6.70;99.90;;;;;;5032771;28;20493;-75
2021/11/08 02:41:32;;;;;;;10.05;2.55;;;6.60;99.90;;;;;;5033094;28;20029;-74
2021/11/08 02:44:00;;;;;;;22.83;4.18;;;6.60;99.90;;;;;;5032784;28;20065;-76
2021/11/08 02:46:26;;;;;;;8.35;2.15;;;6.60;99.90;;;;;;5031865;28;20029;-76
2021/11/08 02:48:53;;;;;;;9.80;2.53;;;6.60;99.90;;;;;;5033177;28;20108;-76
2021/11/08 02:51:23;;;;;;;10.82;2.22;;;6.60;99.90;;;;;;5032853;28;20049;-74
2021/11/08 02:53:52;;;;;;;18.00;2.65;;;6.20;99.90;;;;;;5032331;28;20539;-74
2021/11/08 02:56:19;;;;;;;13.20;2.30;;;6.60;99.90;;;;;;5032343;28;20076;-75
2021/11/08 02:58:46;;;;;;;11.32;1.98;;;6.60;99.90;;;;;;5032275;28;20391;-76
2021/11/08 03:01:15;;;;;;;14.68;2.30;;;6.60;99.90;;;;;;5033194;28;20096;-74
2021/11/08 03:03:45;;;;;;;13.68;2.30;;;6.60;99.90;;;;;;5032568;28;20022;-76
2021/11/08 03:06:22;;;;;;;12.48;2.58;;;6.70;99.90;;;;;;5032547;28;20029;-75
2021/11/08 03:08:48;;;;;;;13.85;2.42;;;6.70;99.90;;;;;;5032815;28;20032;-75
2021/11/08 03:11:14;;;;;;;15.38;2.45;;;6.70;99.90;;;;;;5032078;28;20560;-76
2021/11/08 03:13:45;;;;;;;11.13;2.75;;;6.60;99.90;;;;;;5032797;28;20084;-75
2021/11/08 03:16:22;;;;;;;21.85;4.60;;;6.70;99.90;;;;;;5032435;28;20516;-76
2021/11/08 03:18:54;;;;;;;13.13;2.35;;;6.70;99.90;;;;;;5028278;28;20025;-75
2021/11/08 03:21:21;;;;;;;14.00;2.60;;;6.70;99.90;;;;;;5023365;28;20040;-74
2021/11/08 03:23:49;;;;;;;11.35;2.53;;;6.70;99.90;;;;;;5032409;28;20120;-75
2021/11/08 03:28:50;;;;;;;14.57;2.45;;;6.60;99.90;;;;;;5032276;28;20375;-76
2021/11/08 03:31:16;;;;;;;12.65;3.42;;;6.60;99.90;;;;;;5032358;28;20029;-76
2021/11/08 03:33:44;;;;;;;16.75;2.95;;;6.50;99.90;;;;;;5031653;28;20032;-77
2021/11/08 03:36:10;;;;;;;20.65;3.90;;;6.50;99.90;;;;;;5032012;28;20036;-75
2021/11/08 03:38:38;;;;;;;18.00;2.90;;;6.40;99.90;;;;;;5034603;28;20030;-76
2021/11/08 03:41:04;;;;;;;13.65;3.92;;;6.40;99.90;;;;;;5032111;28;20025;-75
2021/11/08 03:43:30;;;;;;;11.25;3.35;;;6.50;99.90;;;;;;5031878;28;20441;-74
2021/11/08 03:45:57;;;;;;;13.60;3.05;;;6.40;99.90;;;;;;5032491;28;20041;-74
2021/11/08 03:48:23;;;;;;;14.85;2.78;;;6.40;99.90;;;;;;5031473;28;20071;-75
2021/11/08 03:50:48;;;;;;;15.82;4.13;;;6.40;99.90;;;;;;5032460;28;20025;-74
2021/11/08 03:53:15;;;;;;;13.52;3.75;;;6.40;99.90;;;;;;5032120;28;20030;-77
2021/11/08 03:55:42;;;;;;;11.68;3.15;;;6.30;99.90;;;;;;5031310;28;20033;-77
2021/11/08 03:58:08;;;;;;;12.95;3.55;;;6.30;99.90;;;;;;5031987;28;20071;-74
2021/11/08 04:00:34;;;;;;;15.25;2.83;;;6.20;99.90;;;;;;5031791;28;20033;-75
2021/11/08 04:03:01;;;;;;;17.77;3.88;;;6.20;99.90;;;;;;5031446;28;20473;-75
2021/11/08 04:05:28;;;;;;;15.82;3.50;;;6.20;99.90;;;;;;5032414;28;20057;-76
2021/11/08 04:07:55;;;;;;;13.65;3.40;;;6.20;99.90;;;;;;5032366;28;20026;-77
2021/11/08 04:10:21;;;;;;;14.20;3.45;;;6.20;99.90;;;;;;5031259;28;20025;-73
2021/11/08 04:12:52;;;;;;;18.40;3.53;;;6.20;99.90;;;;;;5031636;28;20397;-75
2021/11/08 04:15:20;;;;;;;11.00;3.17;;;6.20;99.90;;;;;;5032297;28;20021;-74
2021/11/08 04:17:47;;;;;;;16.17;3.95;;;6.20;99.90;;;;;;5032057;28;20064;-75
2021/11/08 04:20:20;;;;;;;9.43;2.67;;;6.30;99.90;;;;;;5032897;28;20049;-75
2021/11/08 04:22:48;;;;;;;16.98;3.22;;;6.20;99.90;;;;;;5031956;28;20041;-76
2021/11/08 04:25:14;;;;;;;14.85;3.60;;;6.20;99.90;;;;;;5031264;28;20041;-77
2021/11/08 04:27:47;;;;;;;12.85;3.05;;;6.20;99.90;;;;;;5031466;28;20040;-76
2021/11/08 04:30:13;;;;;;;13.73;3.00;;;6.20;99.90;;;;;;5030888;28;20096;-75
2021/11/08 04:33:25;;;;;;;22.30;5.43;;;6.20;99.90;;;;;;5031093;28;20469;-76
2021/11/08 04:35:45;;;;;;;11.13;3.47;;;6.30;99.90;;;;;;5020421;28;20524;-75
2021/11/08 04:41:20;;;;;;;15.50;2.80;;;6.40;99.90;;;;;;5031995;28;20087;-76
2021/11/08 04:49:29;;;;;;;16.45;2.92;;;6.50;99.90;;;;;;5035196;28;20021;-75
2021/11/08 05:32:25;;;;;;;11.60;2.90;;;6.20;99.90;;;;;;5034304;28;20021;-75
2021/11/08 05:34:51;;;;;;;8.02;2.83;;;6.20;99.90;;;;;;5033294;28;20500;-76
2021/11/08 05:37:18;;;;;;;11.95;2.90;;;6.20;99.90;;;;;;5033542;28;20432;-75
2021/11/08 05:39:50;;;;;;;9.93;3.47;;;6.10;99.90;;;;;;5033968;28;20028;-75
2021/11/08 05:42:17;;;;;;;7.68;3.58;;;6.10;99.90;;;;;;5033236;28;20053;-75
2021/11/08 05:44:43;;;;;;;25.83;3.88;;;6.10;99.90;;;;;;5033898;28;20064;-76
2021/11/08 05:47:09;;;;;;;16.90;4.32;;;6.00;99.90;;;;;;5034295;28;20029;-75
2021/11/08 05:49:36;;;;;;;13.00;4.53;;;6.00;99.90;;;;;;5033049;28;20032;-76
2021/11/08 05:52:02;;;;;;;13.95;3.65;;;6.00;99.90;;;;;;5034181;28;20026;-76
2021/11/08 05:54:28;;;;;;;15.25;4.05;;;6.00;99.90;;;;;;5015140;28;20060;-75
2021/11/08 06:51:41;;;;;;;21.40;3.30;;;7.40;99.90;;;;;;5029677;28;20473;-74
2021/11/08 06:54:07;;;;;;;10.50;2.72;;;7.40;99.90;;;;;;5031437;28;20032;-75
2021/11/08 06:56:38;;;;;;;18.60;3.15;;;7.40;99.90;;;;;;5031034;28;20030;-75
2021/11/08 06:59:04;;;;;;;12.20;2.25;;;7.40;99.90;;;;;;5028051;28;20022;-75
2021/11/08 07:01:31;;;;;;;14.55;3.17;;;7.40;99.90;;;;;;5028966;28;20033;-75
2021/11/08 07:03:57;;;;;;;11.43;3.38;;;8.40;99.90;;;;;;5031581;28;20061;-75
2021/11/08 07:06:23;;;;;;;10.18;3.10;;;7.40;99.90;;;;;;5031342;28;20030;-76
2021/11/08 07:08:49;;;;;;;15.65;2.53;;;7.40;99.90;;;;;;5031809;28;20219;-75
2021/11/08 07:11:15;;;;;;;13.93;3.15;;;7.30;99.90;;;;;;5031402;28;20021;-75
2021/11/08 07:13:41;;;;;;;11.93;2.80;;;7.30;99.90;;;;;;5024894;28;20028;-75
2021/11/08 07:16:07;;;;;;;17.40;3.15;;;7.40;99.90;;;;;;5028525;28;20082;-75
2021/11/08 07:18:32;;;;;;;15.15;2.80;;;7.40;99.90;;;;;;5030664;28;20470;-75
2021/11/08 07:20:58;;;;;;;10.18;2.15;;;7.30;99.90;;;;;;5029944;28;20028;-75
2021/11/08 07:23:23;;;;;;;14.65;3.13;;;7.40;99.90;;;;;;5029864;28;20033;-75
2021/11/08 07:25:49;;;;;;;8.60;2.40;;;7.40;99.90;;;;;;5029816;28;20079;-75
2021/11/08 07:28:15;;;;;;;9.98;3.03;;;7.50;99.90;;;;;;5030585;28;20022;-76
2021/11/08 07:30:43;;;;;;;10.13;2.92;;;7.60;99.90;;;;;;5028719;28;20100;-76
2021/11/08 07:33:08;;;;;;;20.92;3.47;;;7.70;99.90;;;;;;5028063;28;20052;-76
2021/11/08 07:35:34;;;;;;;17.95;3.38;;;7.80;99.90;;;;;;5027097;28;20076;-76
2021/11/08 07:38:00;;;;;;;14.95;4.70;;;7.90;99.90;;;;;;5029074;28;20037;-75
2021/11/08 07:40:27;;;;;;;16.02;3.08;;;8.00;99.90;;;;;;5028824;28;20040;-75
2021/11/08 07:42:52;;;;;;;15.63;3.70;;;8.80;99.90;;;;;;5024879;28;20030;-77
2021/11/08 07:45:18;;;;;;;23.63;3.75;;;8.30;99.90;;;;;;5030854;28;20433;-76
2021/11/08 07:47:44;;;;;;;18.38;3.90;;;8.40;99.90;;;;;;5030076;28;20025;-76
2021/11/08 07:50:11;;;;;;;19.58;4.07;;;8.40;99.90;;;;;;5030881;28;20049;-75
2021/11/08 07:52:37;;;;;;;23.10;3.75;;;8.50;99.90;;;;;;5029845;28;20486;-73
2021/11/08 07:55:03;;;;;;;20.88;3.13;;;8.60;99.90;;;;;;5030162;28;20041;-76
2021/11/08 07:57:29;;;;;;;29.90;4.70;;;8.60;99.90;;;;;;5030419;28;20024;-75
2021/11/08 07:59:56;;;;;;;25.75;3.90;;;8.70;99.90;;;;;;5030885;28;20026;-74
2021/11/08 08:02:22;;;;;;;23.73;6.00;;;8.70;99.90;;;;;;5030194;28;20049;-76
2021/11/08 08:04:47;;;;;;;20.83;3.85;;;8.80;99.90;;;;;;5030802;28;20056;-76
2021/11/08 08:07:13;;;;;;;15.65;3.25;;;8.90;99.90;;;;;;5031264;28;20017;-75
2021/11/08 08:09:39;;;;;;;22.33;3.45;;;8.90;99.90;;;;;;5030148;28;20511;-76
2021/11/08 08:12:06;;;;;;;13.90;2.78;;;9.00;99.90;;;;;;5030943;28;20026;-75
2021/11/08 08:14:32;;;;;;;20.73;5.07;;;9.00;99.90;;;;;;5029387;28;20474;-76
2021/11/08 08:17:03;;;;;;;16.33;3.60;;;9.10;99.90;;;;;;5031791;28;20108;-78
2021/11/08 08:19:30;;;;;;;27.60;5.45;;;9.20;99.90;;;;;;5032335;28;20543;-77
2021/11/08 08:21:55;;;;;;;21.63;4.97;;;9.30;99.90;;;;;;5035698;28;20040;-76
2021/11/08 08:24:21;;;;;;;20.23;5.25;;;9.20;99.90;;;;;;5034156;28;20029;-76
2021/11/08 08:26:47;;;;;;;26.08;4.75;;;9.30;99.90;;;;;;5036236;28;20025;-76
2021/11/08 08:29:14;;;;;;;26.00;4.88;;;9.30;99.90;;;;;;5035572;28;20036;-75
2021/11/08 08:31:44;;;;;;;16.17;3.92;;;9.40;99.90;;;;;;5036099;28;20374;-76
2021/11/08 08:34:10;;;;;;;6.78;2.85;;;9.40;99.90;;;;;;5036204;28;20014;-75
2021/11/08 08:36:37;;;;;;;14.80;3.55;;;9.30;99.90;;;;;;5035171;28;20174;-77
2021/11/08 08:39:05;;;;;;;10.38;3.30;;;9.40;99.90;;;;;;5035783;28;20026;-76
2021/11/08 08:41:31;;;;;;;18.65;4.90;;;9.30;99.90;;;;;;5035763;28;20026;-78
2021/11/08 08:43:56;;;;;;;13.55;4.57;;;9.30;99.90;;;;;;5034676;28;20037;-77
2021/11/08 08:46:22;;;;;;;21.13;4.75;;;9.30;99.90;;;;;;5034596;28;20109;-76
2021/11/08 08:48:49;;;;;;;12.25;3.92;;;9.40;99.90;;;;;;5035450;28;20128;-77
2021/11/08 08:51:15;;;;;;;14.38;3.70;;;9.30;99.90;;;;;;5034818;28;20026;-77
2021/11/08 08:53:41;;;;;;;12.95;3.75;;;9.30;99.90;;;;;;5035818;28;20032;-77
2021/11/08 08:56:06;;;;;;;20.63;4.88;;;9.40;99.90;;;;;;5036499;28;20101;-74
2021/11/08 08:58:32;;;;;;;26.20;4.03;;;9.50;99.90;;;;;;5035090;28;20451;-76
2021/11/08 09:00:58;;;;;;;26.50;4.50;;;9.50;99.90;;;;;;5035534;28;20513;-76
2021/11/08 09:03:25;;;;;;;20.40;3.30;;;9.60;99.90;;;;;;5035066;28;20025;-76
2021/11/08 09:05:51;;;;;;;18.27;3.47;;;9.60;99.90;;;;;;5035406;28;20033;-76
2021/11/08 09:08:21;;;;;;;12.55;3.75;;;9.70;99.90;;;;;;5038193;28;20374;-75
2021/11/08 09:10:48;;;;;;;22.17;4.40;;;9.70;99.90;;;;;;5040352;28;20018;-75
2021/11/08 09:13:15;;;;;;;19.85;4.10;;;9.80;99.90;;;;;;5038974;28;20026;-73
2021/11/08 09:15:41;;;;;;;9.05;3.42;;;9.80;99.90;;;;;;5035058;28;20430;-74
2021/11/08 09:18:08;;;;;;;23.20;4.43;;;9.90;99.90;;;;;;5035195;28;20024;-75
2021/11/08 09:20:36;;;;;;;11.60;3.22;;;10.00;99.90;;;;;;5033880;28;20032;-75
2021/11/08 09:23:05;;;;;;;18.73;3.72;;;10.00;99.90;;;;;;5034674;28;20537;-76
2021/11/08 09:25:31;;;;;;;9.30;3.95;;;10.10;99.90;;;;;;5033660;28;20039;-75
2021/11/08 09:28:00;;;;;;;12.70;3.75;;;10.20;99.90;;;;;;5034806;28;20026;-75
2021/11/08 09:30:30;;;;;;;12.00;4.20;;;10.30;99.90;;;;;;5034433;28;20030;-75
2021/11/08 09:32:56;;;;;;;10.80;2.72;;;10.20;99.90;;;;;;5033669;28;20234;-76
2021/11/08 09:35:23;;;;;;;11.23;3.00;;;10.30;99.90;;;;;;5034447;28;20029;-75
2021/11/08 09:37:50;;;;;;;9.05;2.78;;;10.30;99.90;;;;;;5034966;28;20044;-76
2021/11/08 09:40:21;;;;;;;18.63;3.20;;;10.40;99.90;;;;;;5034250;28;20493;-76
2021/11/08 09:42:50;;;;;;;21.55;4.72;;;10.50;99.90;;;;;;5034395;28;20021;-76
2021/11/08 09:45:16;;;;;;;27.48;6.93;;;10.50;99.90;;;;;;5034488;28;20045;-75
2021/11/08 09:47:43;;;;;;;13.45;4.18;;;10.60;99.90;;;;;;5033202;28;20155;-76
2021/11/08 09:50:12;;;;;;;11.75;4.05;;;10.60;99.90;;;;;;5034793;28;20026;-75
2021/11/08 09:52:44;;;;;;;10.25;3.28;;;10.60;99.90;;;;;;5034327;28;20021;-76
2021/11/08 09:55:12;;;;;;;13.55;3.53;;;10.70;99.90;;;;;;5033854;28;20108;-75
2021/11/08 09:57:39;;;;;;;12.00;3.25;;;10.70;99.90;;;;;;5033590;28;20026;-76
2021/11/08 10:00:21;;;;;;;14.85;4.10;;;10.80;99.90;;;;;;5034167;28;20520;-77
2021/11/08 10:03:11;;;;;;;18.27;3.45;;;10.90;99.90;;;;;;5033400;28;20039;-76
2021/11/08 10:05:42;;;;;;;18.08;4.10;;;11.00;99.90;;;;;;5034259;28;20051;-73
2021/11/08 10:08:09;;;;;;;19.17;4.15;;;11.00;99.90;;;;;;5033830;28;20032;-79
2021/11/08 10:10:35;;;;;;;15.95;4.82;;;11.10;99.90;;;;;;5034165;28;20069;-76
2021/11/08 10:13:13;;;;;;;20.95;5.53;;;11.10;99.90;;;;;;5033769;28;20117;-75
2021/11/08 10:15:42;;;;;;;21.02;5.45;;;11.20;99.90;;;;;;5031977;28;20108;-78
2021/11/08 10:18:09;;;;;;;16.93;6.20;;;11.30;99.90;;;;;;5033905;28;20353;-76
2021/11/08 10:20:39;;;;;;;23.17;5.45;;;11.40;99.90;;;;;;5032364;28;20022;-76
2021/11/08 10:23:06;;;;;;;31.50;5.22;;;11.50;99.90;;;;;;5032017;28;20040;-76
2021/11/08 10:25:34;;;;;;;10.23;5.18;;;11.60;99.90;;;;;;5032074;28;20540;-77
2021/11/08 10:28:16;;;;;;;17.90;6.13;;;11.70;99.90;;;;;;5033611;28;20028;-74
2021/11/08 10:30:43;;;;;;;21.77;5.05;;;11.70;99.90;;;;;;5032489;28;20040;-77
2021/11/08 10:33:22;;;;;;;18.33;4.20;;;11.90;99.90;;;;;;5027047;28;20484;-77
2021/11/08 10:35:51;;;;;;;17.27;4.43;;;11.90;99.90;;;;;;5032041;28;20024;-76
2021/11/08 10:38:30;;;;;;;24.05;4.22;;;11.90;99.90;;;;;;5035018;28;20107;-77
2021/11/08 10:41:14;;;;;;;20.40;4.45;;;12.00;99.90;;;;;;5033547;28;20026;-76
2021/11/08 10:43:50;;;;;;;14.40;2.97;;;11.90;99.90;;;;;;5032966;28;20136;-75
2021/11/08 10:46:37;;;;;;;16.48;4.60;;;12.00;99.90;;;;;;5028179;28;20408;-76
2021/11/08 10:49:25;;;;;;;17.13;3.75;;;12.10;99.90;;;;;;5034059;28;20029;-76
2021/11/08 10:51:54;;;;;;;16.80;3.90;;;12.10;99.90;;;;;;5032299;28;20030;-76
2021/11/08 10:54:30;;;;;;;17.30;4.38;;;12.10;99.90;;;;;;5033088;28;20018;-76
2021/11/08 10:57:08;;;;;;;21.00;3.75;;;12.20;99.90;;;;;;5032726;28;20026;-77
2021/11/08 10:59:43;;;;;;;17.77;3.72;;;12.30;99.90;;;;;;5032525;28;20041;-77
2021/11/08 11:02:13;;;;;;;17.67;3.60;;;12.20;99.90;;;;;;5031698;28;20021;-76
2021/11/08 11:04:45;;;;;;;17.45;3.63;;;12.20;99.90;;;;;;5031064;28;20041;-76
2021/11/08 11:07:28;;;;;;;25.83;4.93;;;12.20;99.90;;;;;;5033012;28;20462;-77
2021/11/08 11:10:01;;;;;;;15.20;3.90;;;12.30;99.90;;;;;;5032686;28;20053;-75
2021/11/08 11:12:29;;;;;;;20.00;3.78;;;12.30;99.90;;;;;;5032052;28;20029;-76
2021/11/08 11:14:58;;;;;;;20.92;3.55;;;12.30;99.90;;;;;;5032643;28;20047;-76
2021/11/08 11:17:26;;;;;;;16.98;3.33;;;12.30;99.90;;;;;;5032649;28;20079;-76
2021/11/08 11:20:06;;;;;;;15.07;3.20;;;12.40;99.90;;;;;;5032757;28;20040;-76
2021/11/08 11:22:34;;;;;;;26.42;3.25;;;12.30;99.90;;;;;;5031790;28;20026;-77
2021/11/08 11:25:07;;;;;;;16.70;2.75;;;12.30;99.90;;;;;;5032421;28;20045;-76
2021/11/08 11:27:49;;;;;;;11.52;2.60;;;12.30;99.90;;;;;;5033086;28;20473;-77
2021/11/08 11:30:19;;;;;;;15.63;2.78;;;12.20;99.90;;;;;;5033224;28;20040;-74
2021/11/08 11:33:06;;;;;;;19.80;3.00;;;12.20;99.90;;;;;;5034880;28;20025;-77
2021/11/08 11:35:45;;;;;;;14.43;2.78;;;12.20;99.90;;;;;;5037715;28;20038;-77
2021/11/08 11:38:21;;;;;;;15.98;3.15;;;12.30;99.90;;;;;;5036541;28;20049;-77
2021/11/08 11:41:09;;;;;;;20.70;3.67;;;12.30;99.90;;;;;;5032860;28;20029;-77
2021/11/08 11:43:56;;;;;;;11.07;2.30;;;12.30;99.90;;;;;;5026528;28;20504;-77
2021/11/08 11:46:31;;;;;;;9.10;2.30;;;12.40;99.90;;;;;;5026964;28;20055;-77
2021/11/08 11:49:02;;;;;;;13.50;2.13;;;12.40;99.90;;;;;;5032028;28;20026;-76
2021/11/08 11:51:39;;;;;;;12.00;3.15;;;12.30;99.90;;;;;;5031902;28;20083;-78
2021/11/08 11:54:06;;;;;;;14.40;2.75;;;12.40;99.90;;;;;;5031771;28;20022;-78
2021/11/08 11:56:35;;;;;;;20.55;3.53;;;12.30;99.90;;;;;;5031517;28;20041;-78
2021/11/08 11:59:02;;;;;;;24.08;2.53;;;12.30;99.90;;;;;;5032409;28;20033;-78
2021/11/08 12:01:30;;;;;;;13.43;2.70;;;12.30;99.90;;;;;;5031028;28;20121;-77
2021/11/08 12:03:56;;;;;;;13.35;2.55;;;12.30;99.90;;;;;;5031783;28;20090;-78
2021/11/08 12:06:29;;;;;;;11.35;2.38;;;12.30;99.90;;;;;;5031893;28;20420;-77
2021/11/08 12:08:57;;;;;;;14.32;3.17;;;12.30;99.90;;;;;;5031442;28;20104;-76
2021/11/08 12:11:31;;;;;;;12.55;3.28;;;12.30;99.90;;;;;;5031845;28;20061;-77
2021/11/08 12:14:03;;;;;;;14.60;2.40;;;12.30;99.90;;;;;;5031750;28;20033;-77
2021/11/08 12:16:29;;;;;;;11.88;2.33;;;12.20;99.90;;;;;;5031228;28;20047;-77
2021/11/08 12:18:58;;;;;;;15.32;3.85;;;12.20;99.90;;;;;;5032474;28;20035;-77
2021/11/08 12:21:31;;;;;;;16.35;2.53;;;12.30;99.90;;;;;;5024809;28;20107;-77
2021/11/08 12:23:58;;;;;;;12.70;2.17;;;12.20;99.90;;;;;;5032548;28;20064;-79
2021/11/08 12:26:27;;;;;;;15.40;2.55;;;12.30;99.90;;;;;;5031643;28;20030;-78
2021/11/08 12:29:09;;;;;;;17.05;2.88;;;12.30;99.90;;;;;;5030663;28;20022;-78
2021/11/08 12:31:35;;;;;;;11.90;3.25;;;12.30;99.90;;;;;;5031821;28;20139;-78
2021/11/08 12:34:07;;;;;;;9.45;2.35;;;12.30;99.90;;;;;;5031781;28;20497;-79
2021/11/08 12:36:34;;;;;;;11.05;2.45;;;12.30;99.90;;;;;;5030692;28;20030;-77
2021/11/08 12:39:11;;;;;;;16.48;2.60;;;12.30;99.90;;;;;;5032051;28;20029;-77
2021/11/08 12:41:48;;;;;;;9.55;2.40;;;12.30;99.90;;;;;;5030862;28;20025;-77
2021/11/08 12:44:17;;;;;;;10.38;2.85;;;12.40;99.90;;;;;;5030636;28;20477;-78
2021/11/08 12:46:52;;;;;;;14.18;3.35;;;12.30;99.90;;;;;;5031010;28;20030;-78
2021/11/08 12:49:23;;;;;;;17.23;2.38;;;12.40;99.90;;;;;;5033716;28;20382;-77
2021/11/08 12:52:06;;;;;;;24.27;2.85;;;12.40;99.90;;;;;;5032251;28;20032;-78
2021/11/08 12:54:48;;;;;;;11.23;2.55;;;12.30;99.90;;;;;;5031280;28;20033;-77
2021/11/08 12:57:15;;;;;;;14.32;2.97;;;12.40;99.90;;;;;;5031468;28;20087;-77
2021/11/08 12:59:48;;;;;;;10.32;3.20;;;12.40;99.90;;;;;;5031539;28;20030;-77
2021/11/08 13:02:18;;;;;;;12.10;2.60;;;12.40;99.90;;;;;;5032009;28;20025;-77
2021/11/08 13:04:45;;;;;;;;;;;12.40;99.90;;;;;;5031215;28;20048;-77
2021/11/08 13:07:12;;;;;;;13.38;2.63;;;12.30;99.90;;;;;;5032016;28;19937;-78
2021/11/08 13:09:53;;;;;;;18.38;2.88;;;12.30;99.90;;;;;;5034537;28;20093;-79
2021/11/08 13:12:21;;;;;;;15.40;3.85;;;12.30;99.90;;;;;;5034634;28;20030;-79
2021/11/08 13:14:49;;;;;;;20.15;2.40;;;12.20;99.90;;;;;;5035232;28;20053;-77
2021/11/08 13:17:18;;;;;;;15.75;2.83;;;12.20;99.90;;;;;;5035214;28;20036;-77
2021/11/08 13:19:54;;;;;;;10.40;2.70;;;12.10;99.90;;;;;;5034261;28;20028;-78
2021/11/08 13:22:28;;;;;;;13.50;2.10;;;12.00;99.90;;;;;;5035063;28;20469;-77
2021/11/08 13:25:09;;;;;;;12.23;2.58;;;11.90;99.90;;;;;;5035079;28;20037;-77
2021/11/08 13:27:36;;;;;;;13.85;2.75;;;11.80;99.90;;;;;;5030838;28;20025;-78
2021/11/08 13:30:08;;;;;;;21.33;2.97;;;11.80;99.90;;;;;;5033494;28;20040;-78
2021/11/08 13:32:35;;;;;;;15.40;2.88;;;11.80;99.90;;;;;;5031374;28;20495;-77
2021/11/08 13:35:28;;;;;;;17.17;2.85;;;11.90;99.90;;;;;;5033709;28;20442;-77
2021/11/08 13:38:24;;;;;;;12.45;2.65;;;12.00;99.90;;;;;;5031466;28;20034;-77
2021/11/08 13:40:54;;;;;;;10.85;2.40;;;12.00;99.90;;;;;;5031939;28;20503;-79
2021/11/08 13:43:23;;;;;;;18.25;2.80;;;12.10;99.90;;;;;;5034327;28;20025;-77
2021/11/08 13:45:57;;;;;;;12.23;2.72;;;12.10;99.90;;;;;;5033554;28;20046;-78
2021/11/08 13:48:40;;;;;;;16.45;2.80;;;12.00;99.90;;;;;;5033900;28;20024;-78
2021/11/08 13:51:18;;;;;;;15.02;2.95;;;12.00;99.90;;;;;;5033447;28;20041;-78
2021/11/08 13:53:50;;;;;;;16.27;4.03;;;12.30;99.90;;;;;;5030284;28;20026;-79
2021/11/08 13:56:41;;;;;;;11.10;2.90;;;11.90;99.90;;;;;;5033017;28;20026;-76
2021/11/08 13:59:16;;;;;;;11.30;2.30;;;11.90;99.90;;;;;;5034503;28;20035;-76
2021/11/08 14:01:45;;;;;;;12.30;2.83;;;11.90;99.90;;;;;;5033488;28;20112;-76
2021/11/08 14:04:12;;;;;;;9.77;2.85;;;11.80;99.90;;;;;;5032158;28;20509;-77
2021/11/08 14:06:42;;;;;;;14.18;2.40;;;11.90;99.90;;;;;;5033363;28;20027;-75
2021/11/08 14:09:11;;;;;;;11.68;2.80;;;11.80;99.90;;;;;;5033480;28;20549;-77
2021/11/08 14:11:41;;;;;;;16.65;2.72;;;11.80;99.90;;;;;;5032695;28;20026;-78
2021/11/08 14:14:15;;;;;;;14.07;3.47;;;11.70;99.90;;;;;;5033290;28;20018;-78
2021/11/08 14:16:44;;;;;;;14.82;2.75;;;11.70;99.90;;;;;;5032270;28;20087;-78
2021/11/08 14:19:11;;;;;;;7.68;1.90;;;11.70;99.90;;;;;;5033305;28;20113;-77
2021/11/08 14:21:37;;;;;;;18.40;2.67;;;11.70;99.90;;;;;;5030665;28;20088;-78
2021/11/08 14:24:06;;;;;;;13.25;2.97;;;11.70;99.90;;;;;;5031902;28;20026;-76
2021/11/08 14:26:33;;;;;;;17.02;3.30;;;11.70;99.90;;;;;;5035856;28;20033;-77
2021/11/08 14:29:07;;;;;;;14.02;3.05;;;11.70;99.90;;;;;;5032795;28;20056;-77
2021/11/08 14:31:33;;;;;;;14.07;3.55;;;11.70;99.90;;;;;;5031381;28;20056;-77
2021/11/08 14:34:05;;;;;;;12.68;2.45;;;11.70;99.90;;;;;;5030613;28;20076;-79
2021/11/08 14:36:36;;;;;;;10.40;2.70;;;11.70;99.90;;;;;;5030824;28;20040;-78
2021/11/08 14:39:08;;;;;;;9.52;2.70;;;11.70;99.90;;;;;;5031630;28;20028;-77
2021/11/08 14:41:34;;;;;;;9.10;3.40;;;11.70;99.90;;;;;;5030515;28;20104;-78
2021/11/08 14:44:06;;;;;;;10.13;2.35;;;11.60;99.90;;;;;;5031825;28;20029;-76